CheckWX is a tool to help pilots better visualize weather data.  It is not intended as a substitute for an official pre-flight weather briefing.

14:50:26 UTC

CYWE METAR
Wekweeti
Wekweeti, Canada
Current

50 mins ago

CYWE 161400Z AUTO 25002KT 9SM SCT065 16/10 A2966 RMK SLP055 DENSITY ALT 1800FT
Observed
Jul-16 @ 14:00 UTC
Wind
  • 250° at 2 KTS
Visibility
9 SM
Flight Rules
VFR
Cloud Levels
  • Scattered at 6,500' AGL
Temperature
16°C / 61°F
Dewpoint
10°C / 50°F
Humidity
68%
Altimeter
29.66" Hg
Pressure
1004.42 hPa
Previous

2 hours ago

CYWE 161300Z AUTO 24003KT 9SM CLR 15/10 A2966 RMK SLP054 DENSITY ALT 1700FT
Observed
Jul-16 @ 13:00 UTC
Wind
  • 240° at 3 KTS
Visibility
9 SM
Flight Rules
VFR
Cloud Levels
  • Clear skies
Temperature
15°C / 59°F
Dewpoint
10°C / 50°F
Humidity
72%
Altimeter
29.66" Hg
Pressure
1004.42 hPa
Previous

3 hours ago

CYWE 161200Z AUTO 23003KT 9SM CLR 15/10 A2966 RMK SLP055 DENSITY ALT 1700FT
Observed
Jul-16 @ 12:00 UTC
Wind
  • 230° at 3 KTS
Visibility
9 SM
Flight Rules
VFR
Cloud Levels
  • Clear skies
Temperature
15°C / 59°F
Dewpoint
10°C / 50°F
Humidity
72%
Altimeter
29.66" Hg
Pressure
1004.42 hPa